sensor_id;sensor_type;location;lat;lon;timestamp;pressure;altitude;pressure_sealevel;temperature;humidity
71476;BME280;59286;59.274;17.974;2023-03-14T00:02:07;96899.34;;;4.54;100.00
71476;BME280;59286;59.274;17.974;2023-03-14T00:04:32;96889.66;;;4.51;100.00
71476;BME280;59286;59.274;17.974;2023-03-14T00:06:58;96891.09;;;4.48;100.00
71476;BME280;59286;59.274;17.974;2023-03-14T00:09:23;96893.38;;;4.53;100.00
71476;BME280;59286;59.274;17.974;2023-03-14T00:11:48;96897.91;;;4.56;100.00
71476;BME280;59286;59.274;17.974;2023-03-14T00:14:14;96894.97;;;4.58;100.00
71476;BME280;59286;59.274;17.974;2023-03-14T00:16:40;96895.06;;;4.65;100.00
71476;BME280;59286;59.274;17.974;2023-03-14T00:19:06;96897.25;;;4.63;100.00
71476;BME280;59286;59.274;17.974;2023-03-14T00:21:31;96901.78;;;4.66;100.00
71476;BME280;59286;59.274;17.974;2023-03-14T00:23:56;96897.97;;;4.60;100.00
71476;BME280;59286;59.274;17.974;2023-03-14T00:26:22;96884.19;;;4.56;100.00
71476;BME280;59286;59.274;17.974;2023-03-14T00:28:51;96888.19;;;4.53;100.00
71476;BME280;59286;59.274;17.974;2023-03-14T00:31:17;96902.31;;;4.56;100.00
71476;BME280;59286;59.274;17.974;2023-03-14T00:33:43;96892.38;;;4.58;100.00
71476;BME280;59286;59.274;17.974;2023-03-14T00:36:15;96889.88;;;4.65;100.00
71476;BME280;59286;59.274;17.974;2023-03-14T00:38:42;96896.69;;;4.73;100.00
71476;BME280;59286;59.274;17.974;2023-03-14T00:41:10;96887.28;;;4.65;100.00
71476;BME280;59286;59.274;17.974;2023-03-14T00:43:36;96900.72;;;4.70;100.00
71476;BME280;59286;59.274;17.974;2023-03-14T00:46:01;96895.13;;;4.68;100.00
71476;BME280;59286;59.274;17.974;2023-03-14T00:48:27;96890.63;;;4.65;100.00
71476;BME280;59286;59.274;17.974;2023-03-14T00:50:52;96879.50;;;4.65;100.00
71476;BME280;59286;59.274;17.974;2023-03-14T00:53:18;96889.22;;;4.68;100.00
71476;BME280;59286;59.274;17.974;2023-03-14T00:55:44;96876.91;;;4.65;100.00
71476;BME280;59286;59.274;17.974;2023-03-14T00:58:11;96890.69;;;4.69;100.00
71476;BME280;59286;59.274;17.974;2023-03-14T01:00:37;96881.81;;;4.70;100.00
71476;BME280;59286;59.274;17.974;2023-03-14T01:03:03;96878.84;;;4.68;100.00
71476;BME280;59286;59.274;17.974;2023-03-14T01:05:28;96867.75;;;4.71;100.00
71476;BME280;59286;59.274;17.974;2023-03-14T01:07:54;96878.53;;;4.73;100.00
71476;BME280;59286;59.274;17.974;2023-03-14T01:10:19;96879.69;;;4.75;100.00
71476;BME280;59286;59.274;17.974;2023-03-14T01:12:45;96877.44;;;4.74;100.00
71476;BME280;59286;59.274;17.974;2023-03-14T01:15:10;96868.09;;;4.69;100.00
71476;BME280;59286;59.274;17.974;2023-03-14T01:17:36;96874.84;;;4.74;100.00
71476;BME280;59286;59.274;17.974;2023-03-14T01:20:03;96874.78;;;4.70;100.00
71476;BME280;59286;59.274;17.974;2023-03-14T01:22:29;96858.88;;;4.72;100.00
71476;BME280;59286;59.274;17.974;2023-03-14T01:24:55;96868.91;;;4.73;100.00
71476;BME280;59286;59.274;17.974;2023-03-14T01:27:20;96868.09;;;4.69;100.00
71476;BME280;59286;59.274;17.974;2023-03-14T01:29:45;96872.13;;;4.67;100.00
71476;BME280;59286;59.274;17.974;2023-03-14T01:32:12;96883.78;;;4.76;100.00
71476;BME280;59286;59.274;17.974;2023-03-14T01:34:37;96880.44;;;4.76;100.00
71476;BME280;59286;59.274;17.974;2023-03-14T01:37:03;96884.22;;;4.82;100.00
71476;BME280;59286;59.274;17.974;2023-03-14T01:39:28;96891.03;;;4.90;100.00
71476;BME280;59286;59.274;17.974;2023-03-14T01:41:54;96877.22;;;4.82;100.00
71476;BME280;59286;59.274;17.974;2023-03-14T01:44:19;96886.47;;;4.83;100.00
71476;BME280;59286;59.274;17.974;2023-03-14T01:46:45;96888.41;;;4.86;100.00
71476;BME280;59286;59.274;17.974;2023-03-14T01:49:29;96887.22;;;4.84;100.00
71476;BME280;59286;59.274;17.974;2023-03-14T01:52:07;96906.88;;;4.85;100.00
71476;BME280;59286;59.274;17.974;2023-03-14T01:54:38;96896.00;;;4.76;100.00
71476;BME280;59286;59.274;17.974;2023-03-14T01:57:11;96903.50;;;4.81;100.00
71476;BME280;59286;59.274;17.974;2023-03-14T01:59:40;96900.72;;;4.70;100.00
71476;BME280;59286;59.274;17.974;2023-03-14T02:02:09;96911.91;;;4.74;100.00
71476;BME280;59286;59.274;17.974;2023-03-14T02:04:38;96918.19;;;4.73;100.00
71476;BME280;59286;59.274;17.974;2023-03-14T02:09:38;96913.34;;;4.72;100.00
71476;BME280;59286;59.274;17.974;2023-03-14T02:12:04;96904.78;;;4.68;100.00
71476;BME280;59286;59.274;17.974;2023-03-14T02:14:33;96913.34;;;4.72;100.00
71476;BME280;59286;59.274;17.974;2023-03-14T02:17:00;96916.34;;;4.74;100.00
71476;BME280;59286;59.274;17.974;2023-03-14T02:19:58;96913.06;;;4.77;100.00
71476;BME280;59286;59.274;17.974;2023-03-14T02:22:30;96915.31;;;4.78;100.00
71476;BME280;59286;59.274;17.974;2023-03-14T02:27:31;96917.16;;;4.78;100.00
71476;BME280;59286;59.274;17.974;2023-03-14T02:30:03;96911.56;;;4.76;100.00
71476;BME280;59286;59.274;17.974;2023-03-14T02:32:31;96916.75;;;4.76;100.00
71476;BME280;59286;59.274;17.974;2023-03-14T02:35:00;96920.56;;;4.82;100.00
71476;BME280;59286;59.274;17.974;2023-03-14T02:37:34;96922.03;;;4.83;100.00
71476;BME280;59286;59.274;17.974;2023-03-14T02:40:01;96905.63;;;4.75;100.00
71476;BME280;59286;59.274;17.974;2023-03-14T02:42:27;96924.16;;;4.77;100.00
71476;BME280;59286;59.274;17.974;2023-03-14T02:47:33;96927.63;;;4.85;100.00
71476;BME280;59286;59.274;17.974;2023-03-14T02:50:05;96933.53;;;4.82;100.00
71476;BME280;59286;59.274;17.974;2023-03-14T02:52:31;96928.63;;;4.77;100.00
71476;BME280;59286;59.274;17.974;2023-03-14T02:54:57;96921.94;;;4.76;100.00
71476;BME280;59286;59.274;17.974;2023-03-14T02:57:22;96927.13;;;4.76;100.00
71476;BME280;59286;59.274;17.974;2023-03-14T02:59:47;96936.41;;;4.77;100.00
71476;BME280;59286;59.274;17.974;2023-03-14T03:02:13;96939.69;;;4.74;100.00
71476;BME280;59286;59.274;17.974;2023-03-14T03:04:38;96936.63;;;4.68;100.00
71476;BME280;59286;59.274;17.974;2023-03-14T03:07:03;96942.56;;;4.69;100.00
71476;BME280;59286;59.274;17.974;2023-03-14T03:09:29;96941.34;;;4.63;100.00
71476;BME280;59286;59.274;17.974;2023-03-14T03:11:54;96946.66;;;4.70;100.00
71476;BME280;59286;59.274;17.974;2023-03-14T03:14:19;96935.13;;;4.67;100.00
71476;BME280;59286;59.274;17.974;2023-03-14T03:16:45;96935.91;;;4.68;100.00
71476;BME280;59286;59.274;17.974;2023-03-14T03:19:10;96940.31;;;4.67;100.00
71476;BME280;59286;59.274;17.974;2023-03-14T03:21:35;96952.34;;;4.75;100.00
71476;BME280;59286;59.274;17.974;2023-03-14T03:24:01;96958.13;;;4.69;100.00
71476;BME280;59286;59.274;17.974;2023-03-14T03:26:26;96975.59;;;4.72;100.00
71476;BME280;59286;59.274;17.974;2023-03-14T03:28:51;96973.97;;;4.64;100.00
71476;BME280;59286;59.274;17.974;2023-03-14T03:31:17;96979.97;;;4.68;100.00
71476;BME280;59286;59.274;17.974;2023-03-14T03:33:42;96979.50;;;4.62;100.00
71476;BME280;59286;59.274;17.974;2023-03-14T03:36:08;96978.00;;;4.61;100.00
71476;BME280;59286;59.274;17.974;2023-03-14T03:38:34;96993.56;;;4.61;100.00
71476;BME280;59286;59.274;17.974;2023-03-14T03:41:04;96992.69;;;4.54;100.00
71476;BME280;59286;59.274;17.974;2023-03-14T03:43:29;96999.38;;;4.55;100.00
71476;BME280;59286;59.274;17.974;2023-03-14T03:45:55;96994.03;;;4.48;100.00
71476;BME280;59286;59.274;17.974;2023-03-14T03:48:20;96986.41;;;4.55;100.00
71476;BME280;59286;59.274;17.974;2023-03-14T03:50:46;96987.56;;;4.57;100.00
71476;BME280;59286;59.274;17.974;2023-03-14T03:53:12;96999.91;;;4.64;100.00
71476;BME280;59286;59.274;17.974;2023-03-14T03:55:40;96996.50;;;4.60;100.00
71476;BME280;59286;59.274;17.974;2023-03-14T03:58:06;97000.59;;;4.61;100.00
71476;BME280;59286;59.274;17.974;2023-03-14T04:00:31;96989.31;;;4.53;100.00
71476;BME280;59286;59.274;17.974;2023-03-14T04:02:58;96996.16;;;4.61;100.00
71476;BME280;59286;59.274;17.974;2023-03-14T04:05:24;97005.09;;;4.64;100.00
71476;BME280;59286;59.274;17.974;2023-03-14T04:07:49;97008.50;;;4.68;100.00
71476;BME280;59286;59.274;17.974;2023-03-14T04:10:15;97019.47;;;4.80;100.00
71476;BME280;59286;59.274;17.974;2023-03-14T04:12:40;97013.53;;;4.80;100.00
71476;BME280;59286;59.274;17.974;2023-03-14T04:15:06;97008.75;;;4.82;100.00
71476;BME280;59286;59.274;17.974;2023-03-14T04:17:31;96996.88;;;4.81;100.00
71476;BME280;59286;59.274;17.974;2023-03-14T04:19:56;96996.81;;;4.77;100.00
71476;BME280;59286;59.274;17.974;2023-03-14T04:22:22;97006.03;;;4.75;100.00
71476;BME280;59286;59.274;17.974;2023-03-14T04:24:47;97010.81;;;4.73;100.00
71476;BME280;59286;59.274;17.974;2023-03-14T04:27:13;97003.03;;;4.73;100.00
71476;BME280;59286;59.274;17.974;2023-03-14T04:29:39;97008.63;;;4.75;100.00
71476;BME280;59286;59.274;17.974;2023-03-14T04:32:05;97009.72;;;4.74;100.00
71476;BME280;59286;59.274;17.974;2023-03-14T04:34:30;97008.56;;;4.71;100.00
71476;BME280;59286;59.274;17.974;2023-03-14T04:36:55;97019.97;;;4.67;100.00
71476;BME280;59286;59.274;17.974;2023-03-14T04:39:21;97018.72;;;4.61;100.00
71476;BME280;59286;59.274;17.974;2023-03-14T04:41:46;97034.28;;;4.61;100.00
71476;BME280;59286;59.274;17.974;2023-03-14T04:44:11;97043.19;;;4.60;100.00
71476;BME280;59286;59.274;17.974;2023-03-14T04:46:37;97048.38;;;4.60;100.00
71476;BME280;59286;59.274;17.974;2023-03-14T04:49:02;97059.16;;;4.62;100.00
71476;BME280;59286;59.274;17.974;2023-03-14T04:51:27;97050.69;;;4.65;100.00
71476;BME280;59286;59.274;17.974;2023-03-14T04:53:53;97052.31;;;4.73;100.00
71476;BME280;59286;59.274;17.974;2023-03-14T04:56:20;97059.69;;;4.71;100.00
71476;BME280;59286;59.274;17.974;2023-03-14T04:58:45;97064.47;;;4.69;100.00
71476;BME280;59286;59.274;17.974;2023-03-14T05:01:10;97074.44;;;4.67;100.00
71476;BME280;59286;59.274;17.974;2023-03-14T05:03:36;97080.25;;;4.60;100.00
71476;BME280;59286;59.274;17.974;2023-03-14T05:06:03;97074.31;;;4.60;100.00
71476;BME280;59286;59.274;17.974;2023-03-14T05:08:29;97075.13;;;4.64;100.00
71476;BME280;59286;59.274;17.974;2023-03-14T05:10:55;97079.50;;;4.60;100.00
71476;BME280;59286;59.274;17.974;2023-03-14T05:13:21;97081.72;;;4.61;100.00
71476;BME280;59286;59.274;17.974;2023-03-14T05:15:47;97089.84;;;4.60;100.00
71476;BME280;59286;59.274;17.974;2023-03-14T05:18:12;97110.19;;;4.58;100.00
71476;BME280;59286;59.274;17.974;2023-03-14T05:20:37;97115.72;;;4.56;100.00
71476;BME280;59286;59.274;17.974;2023-03-14T05:23:03;97123.56;;;4.60;100.00
71476;BME280;59286;59.274;17.974;2023-03-14T05:25:28;97132.84;;;4.61;100.00
71476;BME280;59286;59.274;17.974;2023-03-14T05:27:54;97136.19;;;4.61;100.00
71476;BME280;59286;59.274;17.974;2023-03-14T05:30:20;97140.03;;;4.67;100.00
71476;BME280;59286;59.274;17.974;2023-03-14T05:32:46;97125.06;;;4.61;100.00
71476;BME280;59286;59.274;17.974;2023-03-14T05:35:12;97131.75;;;4.62;100.00
71476;BME280;59286;59.274;17.974;2023-03-14T05:37:37;97153.59;;;4.61;100.00
71476;BME280;59286;59.274;17.974;2023-03-14T05:40:03;97146.44;;;4.54;100.00
71476;BME280;59286;59.274;17.974;2023-03-14T05:42:31;97148.69;;;4.56;100.00
71476;BME280;59286;59.274;17.974;2023-03-14T05:44:57;97149.09;;;4.58;100.00
71476;BME280;59286;59.274;17.974;2023-03-14T05:47:22;97156.88;;;4.58;100.00
71476;BME280;59286;59.274;17.974;2023-03-14T05:49:47;97167.59;;;4.56;100.00
71476;BME280;59286;59.274;17.974;2023-03-14T05:52:13;97185.53;;;4.65;100.00
71476;BME280;59286;59.274;17.974;2023-03-14T05:54:39;97183.88;;;4.57;100.00
71476;BME280;59286;59.274;17.974;2023-03-14T05:57:04;97207.22;;;4.57;100.00
71476;BME280;59286;59.274;17.974;2023-03-14T05:59:30;97198.63;;;4.53;100.00
71476;BME280;59286;59.274;17.974;2023-03-14T06:01:55;97191.16;;;4.51;100.00
71476;BME280;59286;59.274;17.974;2023-03-14T06:04:21;97205.31;;;4.54;100.00
71476;BME280;59286;59.274;17.974;2023-03-14T06:06:46;97204.97;;;4.55;100.00
71476;BME280;59286;59.274;17.974;2023-03-14T06:09:11;97203.81;;;4.53;99.54
71476;BME280;59286;59.274;17.974;2023-03-14T06:11:37;97220.59;;;4.59;99.58
71476;BME280;59286;59.274;17.974;2023-03-14T06:14:02;97225.38;;;4.57;99.19
71476;BME280;59286;59.274;17.974;2023-03-14T06:16:27;97219.38;;;4.53;98.98
71476;BME280;59286;59.274;17.974;2023-03-14T06:18:52;97229.00;;;4.52;98.50
71476;BME280;59286;59.274;17.974;2023-03-14T06:21:18;97243.78;;;4.52;98.34
71476;BME280;59286;59.274;17.974;2023-03-14T06:23:44;97231.94;;;4.51;98.16
71476;BME280;59286;59.274;17.974;2023-03-14T06:26:10;97254.91;;;4.52;97.76
71476;BME280;59286;59.274;17.974;2023-03-14T06:28:37;97238.03;;;4.43;97.68
71476;BME280;59286;59.274;17.974;2023-03-14T06:31:02;97250.31;;;4.46;97.52
71476;BME280;59286;59.274;17.974;2023-03-14T06:33:28;97254.75;;;4.45;97.87
71476;BME280;59286;59.274;17.974;2023-03-14T06:35:53;97257.34;;;4.45;97.41
71476;BME280;59286;59.274;17.974;2023-03-14T06:38:19;97265.22;;;4.49;97.03
71476;BME280;59286;59.274;17.974;2023-03-14T06:40:44;97265.22;;;4.49;96.47
71476;BME280;59286;59.274;17.974;2023-03-14T06:43:09;97271.81;;;4.46;96.39
71476;BME280;59286;59.274;17.974;2023-03-14T06:45:35;97259.28;;;4.48;95.79
71476;BME280;59286;59.274;17.974;2023-03-14T06:48:00;97266.06;;;4.53;95.45
71476;BME280;59286;59.274;17.974;2023-03-14T06:50:26;97269.06;;;4.55;94.97
71476;BME280;59286;59.274;17.974;2023-03-14T06:52:51;97286.88;;;4.56;94.80
71476;BME280;59286;59.274;17.974;2023-03-14T06:55:17;97295.81;;;4.59;94.56
71476;BME280;59286;59.274;17.974;2023-03-14T06:57:42;97317.75;;;4.61;94.33
71476;BME280;59286;59.274;17.974;2023-03-14T07:00:09;97315.81;;;4.58;94.36
71476;BME280;59286;59.274;17.974;2023-03-14T07:02:35;97322.50;;;4.59;94.61
71476;BME280;59286;59.274;17.974;2023-03-14T07:05:00;97331.47;;;4.62;94.75
71476;BME280;59286;59.274;17.974;2023-03-14T07:07:27;97332.78;;;4.56;95.07
71476;BME280;59286;59.274;17.974;2023-03-14T07:09:52;97338.16;;;4.63;94.93
71476;BME280;59286;59.274;17.974;2023-03-14T07:12:17;97350.69;;;4.61;94.69
71476;BME280;59286;59.274;17.974;2023-03-14T07:14:43;97364.09;;;4.63;95.45
71476;BME280;59286;59.274;17.974;2023-03-14T07:17:08;97375.13;;;4.60;95.47
71476;BME280;59286;59.274;17.974;2023-03-14T07:19:33;97372.97;;;4.62;95.05
71476;BME280;59286;59.274;17.974;2023-03-14T07:21:59;97380.25;;;4.56;94.80
71476;BME280;59286;59.274;17.974;2023-03-14T07:24:24;97385.50;;;4.60;93.41
71476;BME280;59286;59.274;17.974;2023-03-14T07:26:49;97389.19;;;4.59;93.44
71476;BME280;59286;59.274;17.974;2023-03-14T07:29:15;97401.22;;;4.51;93.35
71476;BME280;59286;59.274;17.974;2023-03-14T07:31:40;97406.81;;;4.53;93.59
71476;BME280;59286;59.274;17.974;2023-03-14T07:34:05;97409.19;;;4.58;93.32
71476;BME280;59286;59.274;17.974;2023-03-14T07:36:31;97409.44;;;4.69;93.17
71476;BME280;59286;59.274;17.974;2023-03-14T07:38:56;97405.53;;;4.75;92.87
71476;BME280;59286;59.274;17.974;2023-03-14T07:41:21;97411.31;;;4.84;91.53
71476;BME280;59286;59.274;17.974;2023-03-14T07:43:48;97413.72;;;4.92;90.99
71476;BME280;59286;59.274;17.974;2023-03-14T07:46:13;97420.84;;;5.11;89.84
71476;BME280;59286;59.274;17.974;2023-03-14T07:48:40;97425.06;;;5.50;87.95
71476;BME280;59286;59.274;17.974;2023-03-14T07:51:06;97425.25;;;5.76;86.54
71476;BME280;59286;59.274;17.974;2023-03-14T07:53:31;97429.44;;;5.97;85.44
71476;BME280;59286;59.274;17.974;2023-03-14T07:55:56;97435.88;;;6.22;84.58
71476;BME280;59286;59.274;17.974;2023-03-14T07:58:22;97443.09;;;6.51;82.88
71476;BME280;59286;59.274;17.974;2023-03-14T08:00:48;97449.00;;;6.48;81.07
71476;BME280;59286;59.274;17.974;2023-03-14T08:03:14;97447.16;;;6.29;81.89
71476;BME280;59286;59.274;17.974;2023-03-14T08:05:39;97441.59;;;5.93;82.78
71476;BME280;59286;59.274;17.974;2023-03-14T08:08:06;97446.66;;;5.70;83.41
71476;BME280;59286;59.274;17.974;2023-03-14T08:10:31;97438.19;;;5.88;83.47
71476;BME280;59286;59.274;17.974;2023-03-14T08:12:59;97425.59;;;5.91;81.88
71476;BME280;59286;59.274;17.974;2023-03-14T08:15:26;97438.00;;;5.81;81.71
71476;BME280;59286;59.274;17.974;2023-03-14T08:17:51;97442.53;;;5.69;82.40
71476;BME280;59286;59.274;17.974;2023-03-14T08:20:19;97458.25;;;5.72;82.50
71476;BME280;59286;59.274;17.974;2023-03-14T08:22:44;97465.41;;;5.79;81.81
71476;BME280;59286;59.274;17.974;2023-03-14T08:25:10;97466.50;;;5.94;81.59
71476;BME280;59286;59.274;17.974;2023-03-14T08:27:36;97470.47;;;6.07;80.52
71476;BME280;59286;59.274;17.974;2023-03-14T08:30:08;97455.75;;;5.95;80.66
71476;BME280;59286;59.274;17.974;2023-03-14T08:32:34;97476.22;;;5.97;80.96
71476;BME280;59286;59.274;17.974;2023-03-14T08:34:59;97474.03;;;5.99;81.37
71476;BME280;59286;59.274;17.974;2023-03-14T08:37:25;97471.75;;;6.32;80.64
71476;BME280;59286;59.274;17.974;2023-03-14T08:39:53;97475.56;;;6.57;80.04
71476;BME280;59286;59.274;17.974;2023-03-14T08:42:18;97459.69;;;6.62;79.65
71476;BME280;59286;59.274;17.974;2023-03-14T08:44:44;97469.69;;;6.41;79.90
71476;BME280;59286;59.274;17.974;2023-03-14T08:47:10;97466.81;;;6.46;82.16
71476;BME280;59286;59.274;17.974;2023-03-14T08:49:35;97487.56;;;6.42;83.05
71476;BME280;59286;59.274;17.974;2023-03-14T08:52:04;97486.19;;;6.48;82.99
71476;BME280;59286;59.274;17.974;2023-03-14T08:54:30;97476.44;;;6.45;82.99
71476;BME280;59286;59.274;17.974;2023-03-14T08:56:56;97481.47;;;6.35;84.16
71476;BME280;59286;59.274;17.974;2023-03-14T08:59:21;97480.09;;;6.22;83.61
71476;BME280;59286;59.274;17.974;2023-03-14T09:01:47;97477.44;;;6.03;84.90
71476;BME280;59286;59.274;17.974;2023-03-14T09:04:12;97494.44;;;5.97;85.61
71476;BME280;59286;59.274;17.974;2023-03-14T09:06:38;97480.25;;;5.78;85.70
71476;BME280;59286;59.274;17.974;2023-03-14T09:09:04;97486.13;;;5.75;85.73
71476;BME280;59286;59.274;17.974;2023-03-14T09:11:30;97483.53;;;5.75;86.83
71476;BME280;59286;59.274;17.974;2023-03-14T09:13:55;97485.78;;;5.93;84.72
71476;BME280;59286;59.274;17.974;2023-03-14T09:16:21;97481.09;;;5.98;83.23
71476;BME280;59286;59.274;17.974;2023-03-14T09:18:46;97487.53;;;6.04;82.63
71476;BME280;59286;59.274;17.974;2023-03-14T09:21:11;97491.22;;;6.03;82.98
71476;BME280;59286;59.274;17.974;2023-03-14T09:23:37;97497.38;;;6.14;82.41
71476;BME280;59286;59.274;17.974;2023-03-14T09:26:03;97509.00;;;6.36;81.57
71476;BME280;59286;59.274;17.974;2023-03-14T09:28:29;97501.31;;;6.62;80.27
71476;BME280;59286;59.274;17.974;2023-03-14T09:30:55;97507.38;;;6.69;79.83
71476;BME280;59286;59.274;17.974;2023-03-14T09:33:21;97515.34;;;6.76;79.49
71476;BME280;59286;59.274;17.974;2023-03-14T09:35:46;97522.63;;;6.90;78.00
71476;BME280;59286;59.274;17.974;2023-03-14T09:38:12;97521.16;;;6.89;77.50
71476;BME280;59286;59.274;17.974;2023-03-14T09:40:38;97532.69;;;7.11;77.88
71476;BME280;59286;59.274;17.974;2023-03-14T09:43:04;97528.75;;;7.20;77.49
71476;BME280;59286;59.274;17.974;2023-03-14T09:45:34;97542.47;;;7.17;77.47
71476;BME280;59286;59.274;17.974;2023-03-14T09:48:01;97538.88;;;7.03;77.42
71476;BME280;59286;59.274;17.974;2023-03-14T09:50:36;97541.09;;;7.23;77.09
71476;BME280;59286;59.274;17.974;2023-03-14T09:53:08;97542.78;;;7.35;76.54
71476;BME280;59286;59.274;17.974;2023-03-14T09:55:34;97536.13;;;7.37;76.88
71476;BME280;59286;59.274;17.974;2023-03-14T09:58:08;97540.78;;;7.47;75.84
71476;BME280;59286;59.274;17.974;2023-03-14T10:00:35;97543.47;;;7.54;76.49
71476;BME280;59286;59.274;17.974;2023-03-14T10:05:41;97557.72;;;7.60;74.74
71476;BME280;59286;59.274;17.974;2023-03-14T10:08:11;97565.72;;;7.71;74.60
71476;BME280;59286;59.274;17.974;2023-03-14T10:10:36;97568.22;;;7.41;73.33
71476;BME280;59286;59.274;17.974;2023-03-14T10:13:14;97568.66;;;7.24;74.68
71476;BME280;59286;59.274;17.974;2023-03-14T10:15:40;97572.63;;;7.18;75.03
71476;BME280;59286;59.274;17.974;2023-03-14T10:18:11;97567.56;;;7.25;77.04
71476;BME280;59286;59.274;17.974;2023-03-14T10:20:44;97582.31;;;7.40;75.85
71476;BME280;59286;59.274;17.974;2023-03-14T10:26:03;97586.44;;;7.41;75.89
71476;BME280;59286;59.274;17.974;2023-03-14T10:28:28;97575.16;;;7.34;74.46
71476;BME280;59286;59.274;17.974;2023-03-14T10:30:55;97591.00;;;7.25;74.24
71476;BME280;59286;59.274;17.974;2023-03-14T10:33:30;97581.22;;;7.41;77.72
71476;BME280;59286;59.274;17.974;2023-03-14T10:36:01;97585.34;;;7.42;73.73
71476;BME280;59286;59.274;17.974;2023-03-14T10:38:29;97589.53;;;7.47;74.76
71476;BME280;59286;59.274;17.974;2023-03-14T10:40:55;97587.78;;;7.54;74.26
71476;BME280;59286;59.274;17.974;2023-03-14T10:43:40;97596.41;;;7.58;75.12
71476;BME280;59286;59.274;17.974;2023-03-14T10:46:13;97601.63;;;7.58;74.36
71476;BME280;59286;59.274;17.974;2023-03-14T10:48:39;97592.88;;;7.47;74.42
71476;BME280;59286;59.274;17.974;2023-03-14T10:51:11;97606.88;;;7.39;74.77
71476;BME280;59286;59.274;17.974;2023-03-14T10:56:19;97607.06;;;7.08;75.26
71476;BME280;59286;59.274;17.974;2023-03-14T10:58:47;97609.31;;;7.10;75.60
71476;BME280;59286;59.274;17.974;2023-03-14T11:04:25;97619.06;;;6.94;76.53
71476;BME280;59286;59.274;17.974;2023-03-14T11:09:37;97626.63;;;6.83;76.49
71476;BME280;59286;59.274;17.974;2023-03-14T11:12:44;97635.56;;;6.82;76.94
71476;BME280;59286;59.274;17.974;2023-03-14T11:15:27;97636.38;;;6.86;77.53
71476;BME280;59286;59.274;17.974;2023-03-14T11:26:31;97632.63;;;6.83;77.87
71476;BME280;59286;59.274;17.974;2023-03-14T11:29:08;97646.63;;;6.79;76.95
71476;BME280;59286;59.274;17.974;2023-03-14T11:31:39;97643.59;;;6.58;77.95
71476;BME280;59286;59.274;17.974;2023-03-14T11:34:22;97647.72;;;6.59;78.72
71476;BME280;59286;59.274;17.974;2023-03-14T11:39:19;97652.84;;;6.40;79.33
71476;BME280;59286;59.274;17.974;2023-03-14T11:41:52;97654.31;;;6.37;80.04
71476;BME280;59286;59.274;17.974;2023-03-14T11:44:22;97667.13;;;6.46;79.67
71476;BME280;59286;59.274;17.974;2023-03-14T11:47:02;97663.38;;;6.28;80.72
71476;BME280;59286;59.274;17.974;2023-03-14T11:49:36;97666.75;;;6.13;82.51
71476;BME280;59286;59.274;17.974;2023-03-14T11:52:25;97666.66;;;5.94;83.38
71476;BME280;59286;59.274;17.974;2023-03-14T11:55:20;97671.81;;;5.78;85.10
71476;BME280;59286;59.274;17.974;2023-03-14T11:57:49;97682.34;;;5.69;85.84
71476;BME280;59286;59.274;17.974;2023-03-14T12:00:21;97686.47;;;5.70;85.72
71476;BME280;59286;59.274;17.974;2023-03-14T12:11:06;97686.69;;;5.65;89.77
71476;BME280;59286;59.274;17.974;2023-03-14T12:13:38;97692.81;;;5.57;88.86
71476;BME280;59286;59.274;17.974;2023-03-14T12:16:06;97693.97;;;5.60;90.51
71476;BME280;59286;59.274;17.974;2023-03-14T12:18:37;97685.25;;;5.52;91.05
71476;BME280;59286;59.274;17.974;2023-03-14T12:21:06;97691.28;;;5.56;91.85
71476;BME280;59286;59.274;17.974;2023-03-14T12:23:41;97689.03;;;5.55;90.94
71476;BME280;59286;59.274;17.974;2023-03-14T12:28:37;97692.44;;;5.43;92.59
71476;BME280;59286;59.274;17.974;2023-03-14T12:34:24;97684.03;;;5.34;92.78
71476;BME280;59286;59.274;17.974;2023-03-14T12:37:04;97687.91;;;5.40;94.28
71476;BME280;59286;59.274;17.974;2023-03-14T12:39:47;97675.13;;;5.35;93.12
71476;BME280;59286;59.274;17.974;2023-03-14T12:48:18;97682.25;;;5.66;92.96
71476;BME280;59286;59.274;17.974;2023-03-14T12:50:55;97680.44;;;5.39;90.85
71476;BME280;59286;59.274;17.974;2023-03-14T12:53:31;97693.28;;;5.20;92.70
71476;BME280;59286;59.274;17.974;2023-03-14T12:56:22;97674.50;;;5.11;93.65
71476;BME280;59286;59.274;17.974;2023-03-14T13:01:23;97688.59;;;4.85;94.38
71476;BME280;59286;59.274;17.974;2023-03-14T13:03:52;97691.94;;;4.86;95.04
71476;BME280;59286;59.274;17.974;2023-03-14T13:06:57;97684.94;;;4.86;95.96
71476;BME280;59286;59.274;17.974;2023-03-14T13:12:16;97693.88;;;4.89;96.25
71476;BME280;59286;59.274;17.974;2023-03-14T13:14:48;97698.00;;;4.90;97.24
71476;BME280;59286;59.274;17.974;2023-03-14T13:17:16;97707.28;;;4.91;97.71
71476;BME280;59286;59.274;17.974;2023-03-14T13:19:50;97696.81;;;4.87;97.41
71476;BME280;59286;59.274;17.974;2023-03-14T13:22:32;97706.66;;;4.94;97.53
71476;BME280;59286;59.274;17.974;2023-03-14T13:25:07;97710.97;;;4.90;97.62
71476;BME280;59286;59.274;17.974;2023-03-14T13:27:35;97705.69;;;4.86;97.99
71476;BME280;59286;59.274;17.974;2023-03-14T13:30:17;97707.09;;;4.84;99.40
71476;BME280;59286;59.274;17.974;2023-03-14T13:32:44;97703.75;;;4.71;99.16
71476;BME280;59286;59.274;17.974;2023-03-14T13:35:25;97701.16;;;4.59;98.12
71476;BME280;59286;59.274;17.974;2023-03-14T13:38:01;97710.59;;;4.64;98.03
71476;BME280;59286;59.274;17.974;2023-03-14T13:40:31;97717.06;;;4.58;97.73
71476;BME280;59286;59.274;17.974;2023-03-14T13:45:47;97719.97;;;4.44;98.41
71476;BME280;59286;59.274;17.974;2023-03-14T13:48:13;97724.72;;;4.42;98.54
71476;BME280;59286;59.274;17.974;2023-03-14T13:50:54;97727.22;;;4.39;99.10
71476;BME280;59286;59.274;17.974;2023-03-14T13:53:20;97729.81;;;4.27;99.89
71476;BME280;59286;59.274;17.974;2023-03-14T13:55:46;97721.59;;;4.25;100.00
71476;BME280;59286;59.274;17.974;2023-03-14T13:58:20;97716.59;;;4.20;100.00
71476;BME280;59286;59.274;17.974;2023-03-14T14:00:54;97730.88;;;4.26;100.00